sensor_id;sensor_type;location;lat;lon;timestamp;P1;durP1;ratioP1;P2;durP2;ratioP2
43042;SDS011;28667;50.758;6.096;2024-02-26T00:01:41;1.52;;;1.20;;
43042;SDS011;28667;50.758;6.096;2024-02-26T00:04:09;2.17;;;1.20;;
43042;SDS011;28667;50.758;6.096;2024-02-26T00:06:35;2.88;;;1.45;;
43042;SDS011;28667;50.758;6.096;2024-02-26T00:09:01;3.65;;;1.60;;
43042;SDS011;28667;50.758;6.096;2024-02-26T00:11:30;6.07;;;1.63;;
43042;SDS011;28667;50.758;6.096;2024-02-26T00:13:56;1.33;;;1.02;;
43042;SDS011;28667;50.758;6.096;2024-02-26T00:16:23;2.25;;;1.33;;
43042;SDS011;28667;50.758;6.096;2024-02-26T00:18:49;1.35;;;1.13;;
43042;SDS011;28667;50.758;6.096;2024-02-26T00:21:14;3.17;;;1.30;;
43042;SDS011;28667;50.758;6.096;2024-02-26T00:23:40;2.10;;;1.15;;
43042;SDS011;28667;50.758;6.096;2024-02-26T00:26:06;1.88;;;1.17;;
43042;SDS011;28667;50.758;6.096;2024-02-26T00:28:32;1.58;;;1.30;;
43042;SDS011;28667;50.758;6.096;2024-02-26T00:30:58;1.17;;;1.08;;
43042;SDS011;28667;50.758;6.096;2024-02-26T00:33:24;1.85;;;1.10;;
43042;SDS011;28667;50.758;6.096;2024-02-26T00:35:50;3.08;;;1.20;;
43042;SDS011;28667;50.758;6.096;2024-02-26T00:38:16;2.15;;;1.10;;
43042;SDS011;28667;50.758;6.096;2024-02-26T00:40:41;1.67;;;1.20;;
43042;SDS011;28667;50.758;6.096;2024-02-26T00:43:07;2.47;;;1.40;;
43042;SDS011;28667;50.758;6.096;2024-02-26T00:45:33;2.47;;;1.15;;
43042;SDS011;28667;50.758;6.096;2024-02-26T00:47:59;3.42;;;1.25;;
43042;SDS011;28667;50.758;6.096;2024-02-26T00:50:32;4.60;;;1.70;;
43042;SDS011;28667;50.758;6.096;2024-02-26T00:52:59;1.80;;;1.55;;
43042;SDS011;28667;50.758;6.096;2024-02-26T00:55:25;1.90;;;1.35;;
43042;SDS011;28667;50.758;6.096;2024-02-26T00:57:51;3.58;;;1.40;;
43042;SDS011;28667;50.758;6.096;2024-02-26T01:00:16;3.60;;;1.75;;
43042;SDS011;28667;50.758;6.096;2024-02-26T01:02:42;1.65;;;1.15;;
43042;SDS011;28667;50.758;6.096;2024-02-26T01:05:11;4.63;;;1.50;;
43042;SDS011;28667;50.758;6.096;2024-02-26T01:07:38;4.03;;;1.70;;
43042;SDS011;28667;50.758;6.096;2024-02-26T01:10:05;2.95;;;1.38;;
43042;SDS011;28667;50.758;6.096;2024-02-26T01:12:34;3.92;;;1.40;;
43042;SDS011;28667;50.758;6.096;2024-02-26T01:15:04;2.85;;;1.30;;
43042;SDS011;28667;50.758;6.096;2024-02-26T01:17:30;1.88;;;1.00;;
43042;SDS011;28667;50.758;6.096;2024-02-26T01:19:56;3.22;;;1.45;;
43042;SDS011;28667;50.758;6.096;2024-02-26T01:22:21;3.05;;;1.42;;
43042;SDS011;28667;50.758;6.096;2024-02-26T01:24:47;2.03;;;1.10;;
43042;SDS011;28667;50.758;6.096;2024-02-26T01:27:13;1.60;;;1.23;;
43042;SDS011;28667;50.758;6.096;2024-02-26T01:29:42;1.63;;;1.13;;
43042;SDS011;28667;50.758;6.096;2024-02-26T01:32:07;2.47;;;1.23;;
43042;SDS011;28667;50.758;6.096;2024-02-26T01:34:33;2.28;;;1.20;;
43042;SDS011;28667;50.758;6.096;2024-02-26T01:36:59;1.67;;;1.10;;
43042;SDS011;28667;50.758;6.096;2024-02-26T01:39:26;3.70;;;1.10;;
43042;SDS011;28667;50.758;6.096;2024-02-26T01:41:54;1.20;;;1.00;;
43042;SDS011;28667;50.758;6.096;2024-02-26T01:44:19;1.67;;;1.30;;
43042;SDS011;28667;50.758;6.096;2024-02-26T01:46:46;4.45;;;2.25;;
43042;SDS011;28667;50.758;6.096;2024-02-26T01:49:13;2.92;;;1.30;;
43042;SDS011;28667;50.758;6.096;2024-02-26T01:51:39;1.80;;;1.10;;
43042;SDS011;28667;50.758;6.096;2024-02-26T01:54:08;1.58;;;1.13;;
43042;SDS011;28667;50.758;6.096;2024-02-26T01:56:35;1.10;;;1.08;;
43042;SDS011;28667;50.758;6.096;2024-02-26T01:59:02;1.20;;;0.82;;
43042;SDS011;28667;50.758;6.096;2024-02-26T02:01:29;2.08;;;1.10;;
43042;SDS011;28667;50.758;6.096;2024-02-26T02:03:56;1.98;;;1.00;;
43042;SDS011;28667;50.758;6.096;2024-02-26T02:06:23;1.92;;;1.10;;
43042;SDS011;28667;50.758;6.096;2024-02-26T02:08:49;1.92;;;1.00;;
43042;SDS011;28667;50.758;6.096;2024-02-26T02:11:16;2.05;;;1.23;;
43042;SDS011;28667;50.758;6.096;2024-02-26T02:13:42;3.90;;;1.50;;
43042;SDS011;28667;50.758;6.096;2024-02-26T02:16:08;1.50;;;1.02;;
43042;SDS011;28667;50.758;6.096;2024-02-26T02:18:33;1.00;;;0.90;;
43042;SDS011;28667;50.758;6.096;2024-02-26T02:21:02;1.67;;;1.10;;
43042;SDS011;28667;50.758;6.096;2024-02-26T02:23:28;1.42;;;1.20;;
43042;SDS011;28667;50.758;6.096;2024-02-26T02:25:54;2.85;;;1.67;;
43042;SDS011;28667;50.758;6.096;2024-02-26T02:28:22;2.10;;;1.35;;
43042;SDS011;28667;50.758;6.096;2024-02-26T02:30:50;1.85;;;1.20;;
43042;SDS011;28667;50.758;6.096;2024-02-26T02:33:16;4.00;;;1.40;;
43042;SDS011;28667;50.758;6.096;2024-02-26T02:35:42;2.03;;;1.17;;
43042;SDS011;28667;50.758;6.096;2024-02-26T02:38:08;2.10;;;1.10;;
43042;SDS011;28667;50.758;6.096;2024-02-26T02:40:34;1.27;;;1.13;;
43042;SDS011;28667;50.758;6.096;2024-02-26T02:43:00;2.33;;;1.17;;
43042;SDS011;28667;50.758;6.096;2024-02-26T02:45:27;2.42;;;0.95;;
43042;SDS011;28667;50.758;6.096;2024-02-26T02:47:53;1.67;;;1.23;;
43042;SDS011;28667;50.758;6.096;2024-02-26T02:50:19;2.65;;;1.15;;
43042;SDS011;28667;50.758;6.096;2024-02-26T02:52:45;2.50;;;1.30;;
43042;SDS011;28667;50.758;6.096;2024-02-26T02:55:11;2.60;;;1.15;;
43042;SDS011;28667;50.758;6.096;2024-02-26T02:57:37;3.80;;;1.40;;
43042;SDS011;28667;50.758;6.096;2024-02-26T03:00:07;2.65;;;1.30;;
43042;SDS011;28667;50.758;6.096;2024-02-26T03:02:36;1.42;;;0.85;;
43042;SDS011;28667;50.758;6.096;2024-02-26T03:05:04;1.73;;;1.15;;
43042;SDS011;28667;50.758;6.096;2024-02-26T03:07:30;2.10;;;0.90;;
43042;SDS011;28667;50.758;6.096;2024-02-26T03:09:56;1.70;;;1.00;;
43042;SDS011;28667;50.758;6.096;2024-02-26T03:12:22;1.02;;;0.90;;
43042;SDS011;28667;50.758;6.096;2024-02-26T03:14:48;2.00;;;1.02;;
43042;SDS011;28667;50.758;6.096;2024-02-26T03:17:14;2.50;;;0.90;;
43042;SDS011;28667;50.758;6.096;2024-02-26T03:19:39;1.80;;;1.20;;
43042;SDS011;28667;50.758;6.096;2024-02-26T03:22:05;2.13;;;1.20;;
43042;SDS011;28667;50.758;6.096;2024-02-26T03:24:31;1.60;;;1.35;;
43042;SDS011;28667;50.758;6.096;2024-02-26T03:26:57;1.75;;;1.08;;
43042;SDS011;28667;50.758;6.096;2024-02-26T03:29:22;2.15;;;1.00;;
43042;SDS011;28667;50.758;6.096;2024-02-26T03:31:48;1.73;;;1.25;;
43042;SDS011;28667;50.758;6.096;2024-02-26T03:34:14;2.95;;;1.33;;
43042;SDS011;28667;50.758;6.096;2024-02-26T03:36:40;1.38;;;1.20;;
43042;SDS011;28667;50.758;6.096;2024-02-26T03:39:06;3.42;;;1.40;;
43042;SDS011;28667;50.758;6.096;2024-02-26T03:41:35;2.72;;;1.10;;
43042;SDS011;28667;50.758;6.096;2024-02-26T03:44:01;2.53;;;1.58;;
43042;SDS011;28667;50.758;6.096;2024-02-26T03:46:27;2.20;;;1.33;;
43042;SDS011;28667;50.758;6.096;2024-02-26T03:48:53;2.13;;;1.33;;
43042;SDS011;28667;50.758;6.096;2024-02-26T03:51:19;2.78;;;1.40;;
43042;SDS011;28667;50.758;6.096;2024-02-26T03:53:45;4.18;;;2.47;;
43042;SDS011;28667;50.758;6.096;2024-02-26T03:56:11;2.92;;;2.55;;
43042;SDS011;28667;50.758;6.096;2024-02-26T03:58:38;2.72;;;1.73;;
43042;SDS011;28667;50.758;6.096;2024-02-26T04:01:06;2.90;;;1.70;;
43042;SDS011;28667;50.758;6.096;2024-02-26T04:03:33;3.35;;;1.60;;
43042;SDS011;28667;50.758;6.096;2024-02-26T04:05:59;1.30;;;1.20;;
43042;SDS011;28667;50.758;6.096;2024-02-26T04:08:25;2.97;;;1.40;;
43042;SDS011;28667;50.758;6.096;2024-02-26T04:10:51;1.98;;;1.73;;
43042;SDS011;28667;50.758;6.096;2024-02-26T04:13:17;2.75;;;1.90;;
43042;SDS011;28667;50.758;6.096;2024-02-26T04:15:43;2.50;;;1.60;;
43042;SDS011;28667;50.758;6.096;2024-02-26T04:18:09;2.15;;;1.63;;
43042;SDS011;28667;50.758;6.096;2024-02-26T04:20:35;4.00;;;1.63;;
43042;SDS011;28667;50.758;6.096;2024-02-26T04:23:01;4.53;;;1.60;;
43042;SDS011;28667;50.758;6.096;2024-02-26T04:25:27;3.63;;;1.45;;
43042;SDS011;28667;50.758;6.096;2024-02-26T04:27:53;1.98;;;1.55;;
43042;SDS011;28667;50.758;6.096;2024-02-26T04:30:19;4.72;;;1.75;;
43042;SDS011;28667;50.758;6.096;2024-02-26T04:32:45;3.13;;;1.55;;
43042;SDS011;28667;50.758;6.096;2024-02-26T04:35:11;1.88;;;1.30;;
43042;SDS011;28667;50.758;6.096;2024-02-26T04:37:36;2.40;;;1.60;;
43042;SDS011;28667;50.758;6.096;2024-02-26T04:40:03;2.08;;;1.40;;
43042;SDS011;28667;50.758;6.096;2024-02-26T04:42:29;2.78;;;1.50;;
43042;SDS011;28667;50.758;6.096;2024-02-26T04:44:55;2.90;;;1.63;;
43042;SDS011;28667;50.758;6.096;2024-02-26T04:47:21;2.90;;;1.75;;
43042;SDS011;28667;50.758;6.096;2024-02-26T04:49:47;2.25;;;1.60;;
43042;SDS011;28667;50.758;6.096;2024-02-26T04:52:17;2.08;;;1.80;;
43042;SDS011;28667;50.758;6.096;2024-02-26T04:54:43;2.80;;;1.95;;
43042;SDS011;28667;50.758;6.096;2024-02-26T04:57:09;3.88;;;1.90;;
43042;SDS011;28667;50.758;6.096;2024-02-26T04:59:35;2.33;;;1.70;;
43042;SDS011;28667;50.758;6.096;2024-02-26T05:02:01;1.73;;;1.58;;
43042;SDS011;28667;50.758;6.096;2024-02-26T05:04:26;1.98;;;1.30;;
43042;SDS011;28667;50.758;6.096;2024-02-26T05:06:52;2.20;;;1.40;;
43042;SDS011;28667;50.758;6.096;2024-02-26T05:09:18;4.63;;;2.17;;
43042;SDS011;28667;50.758;6.096;2024-02-26T05:11:44;2.00;;;1.50;;
43042;SDS011;28667;50.758;6.096;2024-02-26T05:14:10;2.95;;;1.95;;
43042;SDS011;28667;50.758;6.096;2024-02-26T05:16:36;2.72;;;1.73;;
43042;SDS011;28667;50.758;6.096;2024-02-26T05:19:01;4.95;;;2.17;;
43042;SDS011;28667;50.758;6.096;2024-02-26T05:21:28;2.42;;;1.80;;
43042;SDS011;28667;50.758;6.096;2024-02-26T05:23:54;3.88;;;1.90;;
43042;SDS011;28667;50.758;6.096;2024-02-26T05:26:20;2.65;;;2.30;;
43042;SDS011;28667;50.758;6.096;2024-02-26T05:28:46;4.00;;;2.35;;
43042;SDS011;28667;50.758;6.096;2024-02-26T05:31:12;5.10;;;2.35;;
43042;SDS011;28667;50.758;6.096;2024-02-26T05:33:39;4.47;;;2.67;;
43042;SDS011;28667;50.758;6.096;2024-02-26T05:36:05;2.92;;;2.63;;
43042;SDS011;28667;50.758;6.096;2024-02-26T05:38:31;4.03;;;2.00;;
43042;SDS011;28667;50.758;6.096;2024-02-26T05:40:57;2.75;;;2.42;;
43042;SDS011;28667;50.758;6.096;2024-02-26T05:43:24;5.20;;;2.95;;
43042;SDS011;28667;50.758;6.096;2024-02-26T05:45:50;5.68;;;2.60;;
43042;SDS011;28667;50.758;6.096;2024-02-26T05:48:17;3.63;;;2.40;;
43042;SDS011;28667;50.758;6.096;2024-02-26T05:50:44;4.07;;;2.67;;
43042;SDS011;28667;50.758;6.096;2024-02-26T05:53:10;4.95;;;2.65;;
43042;SDS011;28667;50.758;6.096;2024-02-26T05:55:36;2.17;;;1.98;;
43042;SDS011;28667;50.758;6.096;2024-02-26T05:58:02;2.92;;;2.10;;
43042;SDS011;28667;50.758;6.096;2024-02-26T06:00:28;2.70;;;2.03;;
43042;SDS011;28667;50.758;6.096;2024-02-26T06:02:54;4.15;;;2.40;;
43042;SDS011;28667;50.758;6.096;2024-02-26T06:05:19;2.65;;;2.03;;
43042;SDS011;28667;50.758;6.096;2024-02-26T06:07:45;2.35;;;1.70;;
43042;SDS011;28667;50.758;6.096;2024-02-26T06:10:11;3.55;;;2.28;;
43042;SDS011;28667;50.758;6.096;2024-02-26T06:12:38;8.98;;;3.85;;
43042;SDS011;28667;50.758;6.096;2024-02-26T06:15:05;10.88;;;4.68;;
43042;SDS011;28667;50.758;6.096;2024-02-26T06:17:31;5.95;;;3.47;;
43042;SDS011;28667;50.758;6.096;2024-02-26T06:19:57;4.78;;;2.83;;
43042;SDS011;28667;50.758;6.096;2024-02-26T06:22:24;7.97;;;3.85;;
43042;SDS011;28667;50.758;6.096;2024-02-26T06:24:50;4.55;;;3.10;;
43042;SDS011;28667;50.758;6.096;2024-02-26T06:27:16;4.57;;;3.10;;
43042;SDS011;28667;50.758;6.096;2024-02-26T06:29:41;3.03;;;2.72;;
43042;SDS011;28667;50.758;6.096;2024-02-26T06:32:07;4.85;;;2.78;;
43042;SDS011;28667;50.758;6.096;2024-02-26T06:34:33;4.72;;;2.60;;
43042;SDS011;28667;50.758;6.096;2024-02-26T06:36:59;5.38;;;2.90;;
43042;SDS011;28667;50.758;6.096;2024-02-26T06:39:24;4.63;;;2.78;;
43042;SDS011;28667;50.758;6.096;2024-02-26T06:41:50;3.95;;;2.67;;
43042;SDS011;28667;50.758;6.096;2024-02-26T06:44:19;3.33;;;2.67;;
43042;SDS011;28667;50.758;6.096;2024-02-26T06:46:44;4.55;;;2.72;;
43042;SDS011;28667;50.758;6.096;2024-02-26T06:49:10;3.28;;;2.50;;
43042;SDS011;28667;50.758;6.096;2024-02-26T06:51:36;4.15;;;2.63;;
43042;SDS011;28667;50.758;6.096;2024-02-26T06:54:03;3.78;;;2.70;;
43042;SDS011;28667;50.758;6.096;2024-02-26T06:56:29;5.85;;;2.95;;
43042;SDS011;28667;50.758;6.096;2024-02-26T06:58:55;4.70;;;3.17;;
43042;SDS011;28667;50.758;6.096;2024-02-26T07:01:20;4.90;;;3.53;;
43042;SDS011;28667;50.758;6.096;2024-02-26T07:03:46;4.72;;;3.80;;
43042;SDS011;28667;50.758;6.096;2024-02-26T07:06:12;7.57;;;3.30;;
43042;SDS011;28667;50.758;6.096;2024-02-26T07:08:39;4.80;;;3.45;;
43042;SDS011;28667;50.758;6.096;2024-02-26T07:11:07;4.78;;;3.50;;
43042;SDS011;28667;50.758;6.096;2024-02-26T07:13:34;4.78;;;3.33;;
43042;SDS011;28667;50.758;6.096;2024-02-26T07:15:59;6.10;;;3.75;;
43042;SDS011;28667;50.758;6.096;2024-02-26T07:18:25;5.35;;;3.75;;
43042;SDS011;28667;50.758;6.096;2024-02-26T07:20:51;15.27;;;6.63;;
43042;SDS011;28667;50.758;6.096;2024-02-26T07:23:17;6.60;;;3.97;;
43042;SDS011;28667;50.758;6.096;2024-02-26T07:25:43;5.70;;;3.17;;
43042;SDS011;28667;50.758;6.096;2024-02-26T07:28:09;4.55;;;2.63;;
43042;SDS011;28667;50.758;6.096;2024-02-26T07:30:35;4.63;;;3.38;;
43042;SDS011;28667;50.758;6.096;2024-02-26T07:33:01;4.95;;;3.28;;
43042;SDS011;28667;50.758;6.096;2024-02-26T07:35:27;4.35;;;3.45;;
43042;SDS011;28667;50.758;6.096;2024-02-26T07:37:53;7.30;;;3.97;;
43042;SDS011;28667;50.758;6.096;2024-02-26T07:40:19;3.63;;;2.83;;
43042;SDS011;28667;50.758;6.096;2024-02-26T07:42:44;4.88;;;3.00;;
43042;SDS011;28667;50.758;6.096;2024-02-26T07:45:10;5.57;;;2.65;;
43042;SDS011;28667;50.758;6.096;2024-02-26T07:47:36;5.55;;;2.95;;
43042;SDS011;28667;50.758;6.096;2024-02-26T07:50:06;3.30;;;2.65;;
43042;SDS011;28667;50.758;6.096;2024-02-26T07:52:32;3.05;;;2.42;;
43042;SDS011;28667;50.758;6.096;2024-02-26T07:54:58;3.30;;;2.60;;
43042;SDS011;28667;50.758;6.096;2024-02-26T07:57:24;5.15;;;2.75;;
43042;SDS011;28667;50.758;6.096;2024-02-26T07:59:50;6.22;;;3.03;;
43042;SDS011;28667;50.758;6.096;2024-02-26T08:02:16;4.15;;;2.75;;
43042;SDS011;28667;50.758;6.096;2024-02-26T08:04:42;2.95;;;2.05;;
43042;SDS011;28667;50.758;6.096;2024-02-26T08:07:08;3.70;;;2.88;;
43042;SDS011;28667;50.758;6.096;2024-02-26T08:09:34;3.25;;;2.50;;
43042;SDS011;28667;50.758;6.096;2024-02-26T08:11:59;4.50;;;2.78;;
43042;SDS011;28667;50.758;6.096;2024-02-26T08:14:25;4.70;;;3.20;;
43042;SDS011;28667;50.758;6.096;2024-02-26T08:16:51;5.28;;;3.17;;
43042;SDS011;28667;50.758;6.096;2024-02-26T08:19:17;3.70;;;2.75;;
43042;SDS011;28667;50.758;6.096;2024-02-26T08:21:42;5.38;;;2.47;;
43042;SDS011;28667;50.758;6.096;2024-02-26T08:24:08;2.88;;;2.20;;
43042;SDS011;28667;50.758;6.096;2024-02-26T08:26:34;4.93;;;3.20;;
43042;SDS011;28667;50.758;6.096;2024-02-26T08:29:00;4.15;;;3.00;;
43042;SDS011;28667;50.758;6.096;2024-02-26T08:31:26;3.63;;;2.45;;
43042;SDS011;28667;50.758;6.096;2024-02-26T08:33:52;3.25;;;2.47;;
43042;SDS011;28667;50.758;6.096;2024-02-26T08:36:18;4.70;;;3.05;;
43042;SDS011;28667;50.758;6.096;2024-02-26T08:38:44;4.47;;;3.13;;
43042;SDS011;28667;50.758;6.096;2024-02-26T08:41:10;6.93;;;3.90;;
43042;SDS011;28667;50.758;6.096;2024-02-26T08:43:35;5.35;;;3.55;;
43042;SDS011;28667;50.758;6.096;2024-02-26T08:46:01;4.07;;;3.10;;
43042;SDS011;28667;50.758;6.096;2024-02-26T08:48:28;4.45;;;3.10;;
43042;SDS011;28667;50.758;6.096;2024-02-26T08:50:53;5.28;;;3.28;;
43042;SDS011;28667;50.758;6.096;2024-02-26T08:53:20;4.22;;;2.75;;
43042;SDS011;28667;50.758;6.096;2024-02-26T08:55:46;4.72;;;3.03;;
43042;SDS011;28667;50.758;6.096;2024-02-26T08:58:12;5.00;;;2.60;;
43042;SDS011;28667;50.758;6.096;2024-02-26T09:00:37;3.45;;;1.90;;
43042;SDS011;28667;50.758;6.096;2024-02-26T09:03:03;4.25;;;2.42;;
43042;SDS011;28667;50.758;6.096;2024-02-26T09:05:29;4.13;;;2.83;;
43042;SDS011;28667;50.758;6.096;2024-02-26T09:07:55;2.30;;;1.80;;
43042;SDS011;28667;50.758;6.096;2024-02-26T09:10:21;1.95;;;1.60;;
43042;SDS011;28667;50.758;6.096;2024-02-26T09:12:47;1.98;;;1.30;;
43042;SDS011;28667;50.758;6.096;2024-02-26T09:15:13;1.50;;;1.30;;
43042;SDS011;28667;50.758;6.096;2024-02-26T09:17:39;2.45;;;1.92;;
43042;SDS011;28667;50.758;6.096;2024-02-26T09:20:05;2.95;;;2.08;;
43042;SDS011;28667;50.758;6.096;2024-02-26T09:22:34;2.20;;;1.95;;
43042;SDS011;28667;50.758;6.096;2024-02-26T09:25:03;3.90;;;2.00;;
43042;SDS011;28667;50.758;6.096;2024-02-26T09:27:29;3.35;;;1.88;;
43042;SDS011;28667;50.758;6.096;2024-02-26T09:29:55;1.67;;;1.33;;
43042;SDS011;28667;50.758;6.096;2024-02-26T09:32:21;1.55;;;1.25;;
43042;SDS011;28667;50.758;6.096;2024-02-26T09:34:47;2.70;;;1.17;;
43042;SDS011;28667;50.758;6.096;2024-02-26T09:37:12;2.63;;;1.10;;
43042;SDS011;28667;50.758;6.096;2024-02-26T09:39:38;1.65;;;0.90;;
43042;SDS011;28667;50.758;6.096;2024-02-26T09:42:04;1.35;;;0.88;;
43042;SDS011;28667;50.758;6.096;2024-02-26T09:44:34;1.38;;;0.98;;
43042;SDS011;28667;50.758;6.096;2024-02-26T09:47:03;0.68;;;0.68;;
43042;SDS011;28667;50.758;6.096;2024-02-26T09:49:33;0.80;;;0.77;;
43042;SDS011;28667;50.758;6.096;2024-02-26T09:52:00;1.25;;;0.80;;
43042;SDS011;28667;50.758;6.096;2024-02-26T09:54:30;0.82;;;0.82;;
43042;SDS011;28667;50.758;6.096;2024-02-26T09:56:59;1.35;;;0.73;;
43042;SDS011;28667;50.758;6.096;2024-02-26T09:59:28;1.33;;;0.88;;
43042;SDS011;28667;50.758;6.096;2024-02-26T10:01:56;2.75;;;1.20;;
43042;SDS011;28667;50.758;6.096;2024-02-26T10:04:23;0.90;;;0.88;;
43042;SDS011;28667;50.758;6.096;2024-02-26T10:06:51;1.73;;;0.90;;
43042;SDS011;28667;50.758;6.096;2024-02-26T10:09:17;2.17;;;1.30;;
43042;SDS011;28667;50.758;6.096;2024-02-26T10:11:44;3.00;;;1.10;;
43042;SDS011;28667;50.758;6.096;2024-02-26T10:14:11;2.58;;;1.30;;
43042;SDS011;28667;50.758;6.096;2024-02-26T10:16:37;2.00;;;0.80;;
43042;SDS011;28667;50.758;6.096;2024-02-26T10:19:03;1.63;;;1.20;;
43042;SDS011;28667;50.758;6.096;2024-02-26T10:21:29;1.80;;;1.05;;
43042;SDS011;28667;50.758;6.096;2024-02-26T10:23:54;1.02;;;0.80;;
43042;SDS011;28667;50.758;6.096;2024-02-26T10:26:20;1.80;;;1.00;;
43042;SDS011;28667;50.758;6.096;2024-02-26T10:28:47;1.67;;;1.00;;
43042;SDS011;28667;50.758;6.096;2024-02-26T10:31:13;1.45;;;0.80;;
43042;SDS011;28667;50.758;6.096;2024-02-26T10:33:40;1.02;;;0.88;;
43042;SDS011;28667;50.758;6.096;2024-02-26T10:36:07;2.30;;;1.20;;
43042;SDS011;28667;50.758;6.096;2024-02-26T10:38:34;1.70;;;1.00;;
43042;SDS011;28667;50.758;6.096;2024-02-26T10:41:04;2.15;;;1.30;;
43042;SDS011;28667;50.758;6.096;2024-02-26T10:45:57;0.80;;;0.80;;
43042;SDS011;28667;50.758;6.096;2024-02-26T10:48:23;3.55;;;1.45;;
43042;SDS011;28667;50.758;6.096;2024-02-26T10:50:49;3.08;;;1.85;;
43042;SDS011;28667;50.758;6.096;2024-02-26T10:53:22;2.05;;;1.13;;
43042;SDS011;28667;50.758;6.096;2024-02-26T10:55:49;2.80;;;1.45;;
43042;SDS011;28667;50.758;6.096;2024-02-26T10:58:19;3.97;;;1.80;;
43042;SDS011;28667;50.758;6.096;2024-02-26T11:00:46;1.52;;;1.20;;
43042;SDS011;28667;50.758;6.096;2024-02-26T11:03:14;2.20;;;1.75;;
43042;SDS011;28667;50.758;6.096;2024-02-26T11:05:46;1.88;;;1.45;;
43042;SDS011;28667;50.758;6.096;2024-02-26T11:08:19;2.70;;;1.60;;
43042;SDS011;28667;50.758;6.096;2024-02-26T11:10:50;2.65;;;1.95;;
43042;SDS011;28667;50.758;6.096;2024-02-26T11:13:19;2.05;;;1.67;;
43042;SDS011;28667;50.758;6.096;2024-02-26T11:15:46;2.50;;;2.20;;
43042;SDS011;28667;50.758;6.096;2024-02-26T11:18:15;2.92;;;1.98;;
43042;SDS011;28667;50.758;6.096;2024-02-26T11:20:44;3.58;;;2.70;;
43042;SDS011;28667;50.758;6.096;2024-02-26T11:23:11;3.55;;;2.72;;
43042;SDS011;28667;50.758;6.096;2024-02-26T11:25:37;3.72;;;3.10;;
43042;SDS011;28667;50.758;6.096;2024-02-26T11:28:05;5.47;;;3.38;;
43042;SDS011;28667;50.758;6.096;2024-02-26T11:30:35;4.55;;;3.15;;
43042;SDS011;28667;50.758;6.096;2024-02-26T11:33:05;4.50;;;3.05;;
43042;SDS011;28667;50.758;6.096;2024-02-26T11:35:33;2.90;;;2.45;;
43042;SDS011;28667;50.758;6.096;2024-02-26T11:38:01;6.00;;;3.17;;
43042;SDS011;28667;50.758;6.096;2024-02-26T11:40:27;4.85;;;3.35;;
43042;SDS011;28667;50.758;6.096;2024-02-26T11:42:54;5.20;;;3.70;;
43042;SDS011;28667;50.758;6.096;2024-02-26T11:48:05;5.63;;;4.05;;
43042;SDS011;28667;50.758;6.096;2024-02-26T11:50:52;7.53;;;4.03;;
43042;SDS011;28667;50.758;6.096;2024-02-26T11:55:48;5.53;;;4.32;;
43042;SDS011;28667;50.758;6.096;2024-02-26T11:58:34;6.53;;;4.35;;
43042;SDS011;28667;50.758;6.096;2024-02-26T12:00:59;6.45;;;4.47;;
43042;SDS011;28667;50.758;6.096;2024-02-26T12:03:27;5.93;;;3.92;;
43042;SDS011;28667;50.758;6.096;2024-02-26T12:05:55;6.57;;;4.63;;
43042;SDS011;28667;50.758;6.096;2024-02-26T12:08:21;6.55;;;4.60;;
43042;SDS011;28667;50.758;6.096;2024-02-26T12:10:48;5.88;;;4.07;;
43042;SDS011;28667;50.758;6.096;2024-02-26T12:13:15;6.00;;;4.43;;
43042;SDS011;28667;50.758;6.096;2024-02-26T12:15:42;6.30;;;4.32;;
43042;SDS011;28667;50.758;6.096;2024-02-26T12:18:10;4.82;;;3.85;;
43042;SDS011;28667;50.758;6.096;2024-02-26T12:20:43;6.57;;;4.78;;
43042;SDS011;28667;50.758;6.096;2024-02-26T12:23:09;5.40;;;3.75;;
43042;SDS011;28667;50.758;6.096;2024-02-26T12:25:40;5.25;;;3.65;;
43042;SDS011;28667;50.758;6.096;2024-02-26T12:28:06;3.65;;;2.95;;
43042;SDS011;28667;50.758;6.096;2024-02-26T12:30:32;4.75;;;3.28;;
43042;SDS011;28667;50.758;6.096;2024-02-26T12:32:59;6.93;;;3.38;;
43042;SDS011;28667;50.758;6.096;2024-02-26T12:35:26;5.13;;;3.30;;
43042;SDS011;28667;50.758;6.096;2024-02-26T12:37:53;5.35;;;3.17;;
43042;SDS011;28667;50.758;6.096;2024-02-26T12:40:19;4.70;;;3.25;;
43042;SDS011;28667;50.758;6.096;2024-02-26T12:42:45;4.85;;;3.60;;
43042;SDS011;28667;50.758;6.096;2024-02-26T12:45:12;5.32;;;3.22;;
43042;SDS011;28667;50.758;6.096;2024-02-26T12:47:39;6.05;;;3.83;;
43042;SDS011;28667;50.758;6.096;2024-02-26T12:50:07;6.75;;;3.88;;
43042;SDS011;28667;50.758;6.096;2024-02-26T12:52:35;4.47;;;3.42;;
43042;SDS011;28667;50.758;6.096;2024-02-26T12:55:05;5.38;;;2.90;;
43042;SDS011;28667;50.758;6.096;2024-02-26T12:57:35;4.95;;;3.65;;
43042;SDS011;28667;50.758;6.096;2024-02-26T13:00:02;4.93;;;3.47;;
43042;SDS011;28667;50.758;6.096;2024-02-26T13:02:31;7.85;;;3.90;;
43042;SDS011;28667;50.758;6.096;2024-02-26T13:04:59;6.05;;;3.47;;
43042;SDS011;28667;50.758;6.096;2024-02-26T13:07:26;4.93;;;3.13;;
43042;SDS011;28667;50.758;6.096;2024-02-26T13:09:52;7.60;;;3.85;;
43042;SDS011;28667;50.758;6.096;2024-02-26T13:12:18;7.38;;;3.72;;
43042;SDS011;28667;50.758;6.096;2024-02-26T13:14:44;4.75;;;3.80;;
43042;SDS011;28667;50.758;6.096;2024-02-26T13:17:10;4.40;;;3.50;;
43042;SDS011;28667;50.758;6.096;2024-02-26T13:19:36;5.55;;;4.03;;
43042;SDS011;28667;50.758;6.096;2024-02-26T13:22:05;5.45;;;3.53;;
43042;SDS011;28667;50.758;6.096;2024-02-26T13:24:32;3.80;;;2.92;;
43042;SDS011;28667;50.758;6.096;2024-02-26T13:26:58;6.53;;;3.65;;
43042;SDS011;28667;50.758;6.096;2024-02-26T13:29:24;5.07;;;3.38;;
43042;SDS011;28667;50.758;6.096;2024-02-26T13:31:53;6.07;;;3.60;;
43042;SDS011;28667;50.758;6.096;2024-02-26T13:34:29;5.55;;;3.10;;
43042;SDS011;28667;50.758;6.096;2024-02-26T13:36:56;4.20;;;2.92;;
43042;SDS011;28667;50.758;6.096;2024-02-26T13:39:22;5.63;;;3.20;;
43042;SDS011;28667;50.758;6.096;2024-02-26T13:41:49;4.28;;;2.85;;
43042;SDS011;28667;50.758;6.096;2024-02-26T13:44:15;4.95;;;2.67;;
43042;SDS011;28667;50.758;6.096;2024-02-26T13:46:41;4.32;;;2.35;;
43042;SDS011;28667;50.758;6.096;2024-02-26T13:49:08;4.05;;;1.92;;
43042;SDS011;28667;50.758;6.096;2024-02-26T13:51:34;4.00;;;2.78;;
43042;SDS011;28667;50.758;6.096;2024-02-26T13:54:02;5.53;;;3.20;;
43042;SDS011;28667;50.758;6.096;2024-02-26T13:56:28;4.60;;;2.95;;
43042;SDS011;28667;50.758;6.096;2024-02-26T13:58:54;4.90;;;2.60;;
43042;SDS011;28667;50.758;6.096;2024-02-26T14:01:20;3.20;;;2.58;;
43042;SDS011;28667;50.758;6.096;2024-02-26T14:03:46;3.63;;;2.85;;
43042;SDS011;28667;50.758;6.096;2024-02-26T14:06:11;3.63;;;2.92;;
43042;SDS011;28667;50.758;6.096;2024-02-26T14:08:37;4.22;;;2.90;;
43042;SDS011;28667;50.758;6.096;2024-02-26T14:11:03;3.47;;;2.60;;
43042;SDS011;28667;50.758;6.096;2024-02-26T14:13:28;4.93;;;2.53;;
43042;SDS011;28667;50.758;6.096;2024-02-26T14:15:54;4.00;;;2.40;;
43042;SDS011;28667;50.758;6.096;2024-02-26T14:18:20;7.93;;;2.60;;
43042;SDS011;28667;50.758;6.096;2024-02-26T14:20:46;3.08;;;2.10;;
43042;SDS011;28667;50.758;6.096;2024-02-26T14:23:12;4.82;;;2.35;;
43042;SDS011;28667;50.758;6.096;2024-02-26T14:25:38;3.17;;;2.35;;
43042;SDS011;28667;50.758;6.096;2024-02-26T14:28:03;3.67;;;2.33;;
43042;SDS011;28667;50.758;6.096;2024-02-26T14:30:29;2.88;;;2.22;;
43042;SDS011;28667;50.758;6.096;2024-02-26T14:32:55;3.45;;;2.30;;
43042;SDS011;28667;50.758;6.096;2024-02-26T14:35:21;3.10;;;2.05;;
43042;SDS011;28667;50.758;6.096;2024-02-26T14:37:46;4.20;;;2.63;;
43042;SDS011;28667;50.758;6.096;2024-02-26T14:40:13;4.57;;;2.75;;
43042;SDS011;28667;50.758;6.096;2024-02-26T14:42:40;4.10;;;2.67;;
43042;SDS011;28667;50.758;6.096;2024-02-26T14:45:06;6.00;;;3.63;;
43042;SDS011;28667;50.758;6.096;2024-02-26T14:47:37;5.95;;;3.83;;
43042;SDS011;28667;50.758;6.096;2024-02-26T14:50:03;9.05;;;4.35;;
43042;SDS011;28667;50.758;6.096;2024-02-26T14:52:29;9.10;;;4.63;;